sensor_id;sensor_type;location;lat;lon;timestamp;P1;durP1;ratioP1;P2;durP2;ratioP2
2390;SDS011;22957;50.824;4.360;2023-07-16T00:01:57;1317.33;;;999.90;;
2390;SDS011;22957;50.824;4.360;2023-07-16T00:04:22;1322.03;;;999.90;;
2390;SDS011;22957;50.824;4.360;2023-07-16T00:06:48;1313.63;;;999.90;;
2390;SDS011;22957;50.824;4.360;2023-07-16T00:09:14;1321.40;;;999.90;;
2390;SDS011;22957;50.824;4.360;2023-07-16T00:11:39;1312.90;;;999.90;;
2390;SDS011;22957;50.824;4.360;2023-07-16T00:14:05;1325.80;;;999.90;;
2390;SDS011;22957;50.824;4.360;2023-07-16T00:16:31;1312.43;;;999.90;;
2390;SDS011;22957;50.824;4.360;2023-07-16T00:18:56;1319.07;;;999.90;;
2390;SDS011;22957;50.824;4.360;2023-07-16T00:21:22;1319.17;;;999.90;;
2390;SDS011;22957;50.824;4.360;2023-07-16T00:23:48;1318.60;;;999.90;;
2390;SDS011;22957;50.824;4.360;2023-07-16T00:26:14;1314.43;;;999.90;;
2390;SDS011;22957;50.824;4.360;2023-07-16T00:28:39;1314.93;;;999.90;;
2390;SDS011;22957;50.824;4.360;2023-07-16T00:31:05;1298.10;;;999.90;;
2390;SDS011;22957;50.824;4.360;2023-07-16T00:33:30;1306.93;;;999.90;;
2390;SDS011;22957;50.824;4.360;2023-07-16T00:35:56;1291.83;;;999.90;;
2390;SDS011;22957;50.824;4.360;2023-07-16T00:38:22;1303.30;;;999.90;;
2390;SDS011;22957;50.824;4.360;2023-07-16T00:40:47;1293.67;;;999.90;;
2390;SDS011;22957;50.824;4.360;2023-07-16T00:43:13;1316.73;;;999.90;;
2390;SDS011;22957;50.824;4.360;2023-07-16T00:45:39;1294.70;;;999.90;;
2390;SDS011;22957;50.824;4.360;2023-07-16T00:48:06;1303.40;;;999.90;;
2390;SDS011;22957;50.824;4.360;2023-07-16T00:50:33;1296.57;;;999.90;;
2390;SDS011;22957;50.824;4.360;2023-07-16T00:53:04;1299.90;;;999.90;;
2390;SDS011;22957;50.824;4.360;2023-07-16T00:55:37;1300.70;;;999.90;;
2390;SDS011;22957;50.824;4.360;2023-07-16T00:58:05;1297.90;;;999.90;;
2390;SDS011;22957;50.824;4.360;2023-07-16T01:00:36;1295.47;;;999.90;;
2390;SDS011;22957;50.824;4.360;2023-07-16T01:03:03;1300.37;;;999.90;;
2390;SDS011;22957;50.824;4.360;2023-07-16T01:08:42;1284.90;;;999.90;;
2390;SDS011;22957;50.824;4.360;2023-07-16T01:11:12;1285.30;;;999.90;;
2390;SDS011;22957;50.824;4.360;2023-07-16T01:13:37;1296.57;;;999.90;;
2390;SDS011;22957;50.824;4.360;2023-07-16T01:16:04;1306.57;;;999.90;;
2390;SDS011;22957;50.824;4.360;2023-07-16T01:18:30;1299.37;;;999.90;;
2390;SDS011;22957;50.824;4.360;2023-07-16T01:20:55;1291.20;;;999.90;;
2390;SDS011;22957;50.824;4.360;2023-07-16T01:26:08;1281.93;;;999.90;;
2390;SDS011;22957;50.824;4.360;2023-07-16T01:31:52;1294.13;;;999.90;;
2390;SDS011;22957;50.824;4.360;2023-07-16T01:34:21;1287.37;;;999.90;;
2390;SDS011;22957;50.824;4.360;2023-07-16T01:36:49;1290.33;;;999.90;;
2390;SDS011;22957;50.824;4.360;2023-07-16T01:39:14;1292.53;;;999.90;;
2390;SDS011;22957;50.824;4.360;2023-07-16T01:41:41;1284.03;;;999.90;;
2390;SDS011;22957;50.824;4.360;2023-07-16T01:44:06;1290.03;;;999.90;;
2390;SDS011;22957;50.824;4.360;2023-07-16T01:46:32;1285.27;;;999.90;;
2390;SDS011;22957;50.824;4.360;2023-07-16T01:48:58;1288.00;;;999.90;;
2390;SDS011;22957;50.824;4.360;2023-07-16T01:51:23;1293.03;;;999.90;;
2390;SDS011;22957;50.824;4.360;2023-07-16T01:53:49;1293.00;;;999.90;;
2390;SDS011;22957;50.824;4.360;2023-07-16T01:56:14;1291.97;;;999.90;;
2390;SDS011;22957;50.824;4.360;2023-07-16T01:58:41;1296.53;;;999.90;;
2390;SDS011;22957;50.824;4.360;2023-07-16T02:01:07;1302.50;;;999.90;;
2390;SDS011;22957;50.824;4.360;2023-07-16T02:03:32;1297.73;;;999.90;;
2390;SDS011;22957;50.824;4.360;2023-07-16T02:05:58;1296.50;;;999.90;;
2390;SDS011;22957;50.824;4.360;2023-07-16T02:08:23;1302.53;;;999.90;;
2390;SDS011;22957;50.824;4.360;2023-07-16T02:10:49;1290.63;;;999.90;;
2390;SDS011;22957;50.824;4.360;2023-07-16T02:13:15;1287.80;;;999.90;;
2390;SDS011;22957;50.824;4.360;2023-07-16T02:15:41;1295.00;;;999.90;;
2390;SDS011;22957;50.824;4.360;2023-07-16T02:18:07;1293.20;;;999.90;;
2390;SDS011;22957;50.824;4.360;2023-07-16T02:20:33;1288.03;;;999.90;;
2390;SDS011;22957;50.824;4.360;2023-07-16T02:22:58;1298.20;;;999.90;;
2390;SDS011;22957;50.824;4.360;2023-07-16T02:25:24;1295.47;;;999.90;;
2390;SDS011;22957;50.824;4.360;2023-07-16T02:27:50;1285.60;;;999.90;;
2390;SDS011;22957;50.824;4.360;2023-07-16T02:30:16;1291.70;;;999.90;;
2390;SDS011;22957;50.824;4.360;2023-07-16T02:32:42;1291.33;;;999.90;;
2390;SDS011;22957;50.824;4.360;2023-07-16T02:35:07;1297.70;;;999.90;;
2390;SDS011;22957;50.824;4.360;2023-07-16T02:37:33;1288.03;;;999.90;;
2390;SDS011;22957;50.824;4.360;2023-07-16T02:39:59;1300.33;;;999.90;;
2390;SDS011;22957;50.824;4.360;2023-07-16T02:42:24;1285.97;;;999.90;;
2390;SDS011;22957;50.824;4.360;2023-07-16T02:44:50;1292.27;;;999.90;;
2390;SDS011;22957;50.824;4.360;2023-07-16T02:47:15;1287.00;;;999.90;;
2390;SDS011;22957;50.824;4.360;2023-07-16T02:49:41;1280.50;;;999.90;;
2390;SDS011;22957;50.824;4.360;2023-07-16T02:52:07;1287.47;;;999.90;;
2390;SDS011;22957;50.824;4.360;2023-07-16T02:54:32;1280.37;;;999.90;;
2390;SDS011;22957;50.824;4.360;2023-07-16T02:57:00;1281.13;;;999.90;;
2390;SDS011;22957;50.824;4.360;2023-07-16T02:59:25;1280.97;;;999.90;;
2390;SDS011;22957;50.824;4.360;2023-07-16T03:01:51;1277.97;;;999.90;;
2390;SDS011;22957;50.824;4.360;2023-07-16T03:04:17;1291.23;;;999.90;;
2390;SDS011;22957;50.824;4.360;2023-07-16T03:06:42;1300.73;;;999.90;;
2390;SDS011;22957;50.824;4.360;2023-07-16T03:09:08;1289.30;;;999.90;;
2390;SDS011;22957;50.824;4.360;2023-07-16T03:11:34;1284.23;;;999.90;;
2390;SDS011;22957;50.824;4.360;2023-07-16T03:13:59;1287.90;;;999.90;;
2390;SDS011;22957;50.824;4.360;2023-07-16T03:16:25;1289.43;;;999.90;;
2390;SDS011;22957;50.824;4.360;2023-07-16T03:18:50;1288.17;;;999.90;;
2390;SDS011;22957;50.824;4.360;2023-07-16T03:21:16;1282.10;;;999.90;;
2390;SDS011;22957;50.824;4.360;2023-07-16T03:23:42;1277.13;;;999.90;;
2390;SDS011;22957;50.824;4.360;2023-07-16T03:26:07;1275.00;;;999.90;;
2390;SDS011;22957;50.824;4.360;2023-07-16T03:28:33;1270.20;;;999.90;;
2390;SDS011;22957;50.824;4.360;2023-07-16T03:30:58;1270.30;;;999.90;;
2390;SDS011;22957;50.824;4.360;2023-07-16T03:33:24;1288.23;;;999.90;;
2390;SDS011;22957;50.824;4.360;2023-07-16T03:35:49;1289.17;;;999.90;;
2390;SDS011;22957;50.824;4.360;2023-07-16T03:38:15;1272.60;;;999.90;;
2390;SDS011;22957;50.824;4.360;2023-07-16T03:40:46;1284.67;;;999.90;;
2390;SDS011;22957;50.824;4.360;2023-07-16T03:43:13;1276.00;;;999.90;;
2390;SDS011;22957;50.824;4.360;2023-07-16T03:45:39;1269.37;;;999.90;;
2390;SDS011;22957;50.824;4.360;2023-07-16T03:48:05;1285.00;;;999.90;;
2390;SDS011;22957;50.824;4.360;2023-07-16T03:50:30;1283.73;;;999.90;;
2390;SDS011;22957;50.824;4.360;2023-07-16T03:52:56;1284.73;;;999.90;;
2390;SDS011;22957;50.824;4.360;2023-07-16T03:55:22;1287.13;;;999.90;;
2390;SDS011;22957;50.824;4.360;2023-07-16T03:57:47;1281.73;;;999.90;;
2390;SDS011;22957;50.824;4.360;2023-07-16T04:00:13;1290.50;;;999.90;;
2390;SDS011;22957;50.824;4.360;2023-07-16T04:02:38;1287.87;;;999.90;;
2390;SDS011;22957;50.824;4.360;2023-07-16T04:05:04;1275.40;;;999.90;;
2390;SDS011;22957;50.824;4.360;2023-07-16T04:07:30;1290.03;;;999.90;;
2390;SDS011;22957;50.824;4.360;2023-07-16T04:09:56;1287.10;;;999.90;;
2390;SDS011;22957;50.824;4.360;2023-07-16T04:12:21;1284.97;;;999.90;;
2390;SDS011;22957;50.824;4.360;2023-07-16T04:14:47;1291.27;;;999.90;;
2390;SDS011;22957;50.824;4.360;2023-07-16T04:17:13;1295.57;;;999.90;;
2390;SDS011;22957;50.824;4.360;2023-07-16T04:19:38;1280.03;;;999.90;;
2390;SDS011;22957;50.824;4.360;2023-07-16T04:22:04;1297.47;;;999.90;;
2390;SDS011;22957;50.824;4.360;2023-07-16T04:24:30;1295.60;;;999.90;;
2390;SDS011;22957;50.824;4.360;2023-07-16T04:26:55;1286.90;;;999.90;;
2390;SDS011;22957;50.824;4.360;2023-07-16T04:29:22;1272.03;;;999.90;;
2390;SDS011;22957;50.824;4.360;2023-07-16T04:31:48;1276.87;;;999.90;;
2390;SDS011;22957;50.824;4.360;2023-07-16T04:34:13;1281.37;;;999.90;;
2390;SDS011;22957;50.824;4.360;2023-07-16T04:36:39;1307.80;;;999.90;;
2390;SDS011;22957;50.824;4.360;2023-07-16T04:39:05;1300.97;;;999.90;;
2390;SDS011;22957;50.824;4.360;2023-07-16T04:41:30;1308.07;;;999.90;;
2390;SDS011;22957;50.824;4.360;2023-07-16T04:43:56;1308.57;;;999.90;;
2390;SDS011;22957;50.824;4.360;2023-07-16T04:46:22;1316.50;;;999.90;;
2390;SDS011;22957;50.824;4.360;2023-07-16T04:48:47;1322.40;;;999.90;;
2390;SDS011;22957;50.824;4.360;2023-07-16T04:51:13;1332.97;;;999.90;;
2390;SDS011;22957;50.824;4.360;2023-07-16T04:53:38;1333.43;;;999.90;;
2390;SDS011;22957;50.824;4.360;2023-07-16T04:56:04;1336.30;;;999.90;;
2390;SDS011;22957;50.824;4.360;2023-07-16T04:58:35;1338.97;;;999.90;;
2390;SDS011;22957;50.824;4.360;2023-07-16T05:01:00;1348.87;;;999.90;;
2390;SDS011;22957;50.824;4.360;2023-07-16T05:03:26;1345.73;;;999.90;;
2390;SDS011;22957;50.824;4.360;2023-07-16T05:05:51;1348.30;;;999.90;;
2390;SDS011;22957;50.824;4.360;2023-07-16T05:08:17;1359.33;;;999.90;;
2390;SDS011;22957;50.824;4.360;2023-07-16T05:10:42;1367.63;;;999.90;;
2390;SDS011;22957;50.824;4.360;2023-07-16T05:13:08;1377.70;;;999.90;;
2390;SDS011;22957;50.824;4.360;2023-07-16T05:15:33;1373.50;;;999.90;;
2390;SDS011;22957;50.824;4.360;2023-07-16T05:17:59;1369.73;;;999.90;;
2390;SDS011;22957;50.824;4.360;2023-07-16T05:20:24;1381.03;;;999.90;;
2390;SDS011;22957;50.824;4.360;2023-07-16T05:22:50;1386.57;;;999.90;;
2390;SDS011;22957;50.824;4.360;2023-07-16T05:25:16;1398.10;;;999.90;;
2390;SDS011;22957;50.824;4.360;2023-07-16T05:27:41;1391.13;;;999.90;;
2390;SDS011;22957;50.824;4.360;2023-07-16T05:30:07;1397.97;;;999.90;;
2390;SDS011;22957;50.824;4.360;2023-07-16T05:32:33;1398.70;;;999.90;;
2390;SDS011;22957;50.824;4.360;2023-07-16T05:34:58;1404.90;;;999.90;;
2390;SDS011;22957;50.824;4.360;2023-07-16T05:37:24;1404.53;;;999.90;;
2390;SDS011;22957;50.824;4.360;2023-07-16T05:39:50;1411.13;;;999.90;;
2390;SDS011;22957;50.824;4.360;2023-07-16T05:42:16;1412.97;;;999.90;;
2390;SDS011;22957;50.824;4.360;2023-07-16T05:44:41;1420.17;;;999.90;;
2390;SDS011;22957;50.824;4.360;2023-07-16T05:47:09;1425.83;;;999.90;;
2390;SDS011;22957;50.824;4.360;2023-07-16T05:49:35;1427.10;;;999.90;;
2390;SDS011;22957;50.824;4.360;2023-07-16T05:52:00;1431.57;;;999.90;;
2390;SDS011;22957;50.824;4.360;2023-07-16T05:54:26;1432.00;;;999.90;;
2390;SDS011;22957;50.824;4.360;2023-07-16T05:56:52;1431.60;;;999.90;;
2390;SDS011;22957;50.824;4.360;2023-07-16T05:59:18;1438.30;;;999.90;;
2390;SDS011;22957;50.824;4.360;2023-07-16T06:01:43;1438.87;;;999.90;;
2390;SDS011;22957;50.824;4.360;2023-07-16T06:04:09;1439.80;;;999.90;;
2390;SDS011;22957;50.824;4.360;2023-07-16T06:06:35;1445.73;;;999.90;;
2390;SDS011;22957;50.824;4.360;2023-07-16T06:09:00;1450.63;;;999.90;;
2390;SDS011;22957;50.824;4.360;2023-07-16T06:11:26;1452.80;;;999.90;;
2390;SDS011;22957;50.824;4.360;2023-07-16T06:13:53;1450.17;;;999.90;;
2390;SDS011;22957;50.824;4.360;2023-07-16T06:16:19;1451.37;;;999.90;;
2390;SDS011;22957;50.824;4.360;2023-07-16T06:18:45;1456.27;;;999.90;;
2390;SDS011;22957;50.824;4.360;2023-07-16T06:21:10;1464.23;;;999.90;;
2390;SDS011;22957;50.824;4.360;2023-07-16T06:23:36;1468.83;;;999.90;;
2390;SDS011;22957;50.824;4.360;2023-07-16T06:26:03;1465.20;;;999.90;;
2390;SDS011;22957;50.824;4.360;2023-07-16T06:28:28;1469.67;;;999.90;;
2390;SDS011;22957;50.824;4.360;2023-07-16T06:30:54;1467.77;;;999.90;;
2390;SDS011;22957;50.824;4.360;2023-07-16T06:33:19;1472.20;;;999.90;;
2390;SDS011;22957;50.824;4.360;2023-07-16T06:35:45;1473.77;;;999.90;;
2390;SDS011;22957;50.824;4.360;2023-07-16T06:38:14;1468.77;;;999.90;;
2390;SDS011;22957;50.824;4.360;2023-07-16T06:40:46;1467.43;;;999.90;;
2390;SDS011;22957;50.824;4.360;2023-07-16T06:43:16;1460.80;;;999.90;;
2390;SDS011;22957;50.824;4.360;2023-07-16T06:45:42;1472.37;;;999.90;;
2390;SDS011;22957;50.824;4.360;2023-07-16T06:48:08;1477.13;;;999.90;;
2390;SDS011;22957;50.824;4.360;2023-07-16T06:50:33;1473.70;;;999.90;;
2390;SDS011;22957;50.824;4.360;2023-07-16T06:52:59;1479.97;;;999.90;;
2390;SDS011;22957;50.824;4.360;2023-07-16T06:55:25;1476.80;;;999.90;;
2390;SDS011;22957;50.824;4.360;2023-07-16T06:57:50;1487.87;;;999.90;;
2390;SDS011;22957;50.824;4.360;2023-07-16T07:00:16;1488.77;;;999.90;;
2390;SDS011;22957;50.824;4.360;2023-07-16T07:02:42;1490.67;;;999.90;;
2390;SDS011;22957;50.824;4.360;2023-07-16T07:05:07;1494.63;;;999.90;;
2390;SDS011;22957;50.824;4.360;2023-07-16T07:07:33;1493.50;;;999.90;;
2390;SDS011;22957;50.824;4.360;2023-07-16T07:09:59;1495.13;;;999.90;;
2390;SDS011;22957;50.824;4.360;2023-07-16T07:12:24;1489.27;;;999.90;;
2390;SDS011;22957;50.824;4.360;2023-07-16T07:14:50;1493.30;;;999.90;;
2390;SDS011;22957;50.824;4.360;2023-07-16T07:17:15;1491.10;;;999.90;;
2390;SDS011;22957;50.824;4.360;2023-07-16T07:19:41;1487.83;;;999.90;;
2390;SDS011;22957;50.824;4.360;2023-07-16T07:22:08;1494.90;;;999.90;;
2390;SDS011;22957;50.824;4.360;2023-07-16T07:24:33;1492.97;;;999.90;;
2390;SDS011;22957;50.824;4.360;2023-07-16T07:26:59;1497.27;;;999.90;;
2390;SDS011;22957;50.824;4.360;2023-07-16T07:29:24;1494.40;;;999.90;;
2390;SDS011;22957;50.824;4.360;2023-07-16T07:31:52;1495.27;;;999.90;;
2390;SDS011;22957;50.824;4.360;2023-07-16T07:34:18;1490.83;;;999.90;;
2390;SDS011;22957;50.824;4.360;2023-07-16T07:36:43;1487.30;;;999.90;;
2390;SDS011;22957;50.824;4.360;2023-07-16T07:39:09;1486.83;;;999.90;;
2390;SDS011;22957;50.824;4.360;2023-07-16T07:41:35;1482.73;;;999.90;;
2390;SDS011;22957;50.824;4.360;2023-07-16T07:44:00;1476.73;;;999.90;;
2390;SDS011;22957;50.824;4.360;2023-07-16T07:46:26;1474.33;;;999.90;;
2390;SDS011;22957;50.824;4.360;2023-07-16T07:48:52;1476.83;;;999.90;;
2390;SDS011;22957;50.824;4.360;2023-07-16T07:51:18;1475.30;;;999.90;;
2390;SDS011;22957;50.824;4.360;2023-07-16T07:53:44;1469.67;;;999.90;;
2390;SDS011;22957;50.824;4.360;2023-07-16T07:56:10;1479.47;;;999.90;;
2390;SDS011;22957;50.824;4.360;2023-07-16T07:58:35;1474.43;;;999.90;;
2390;SDS011;22957;50.824;4.360;2023-07-16T08:01:05;1485.87;;;999.90;;
2390;SDS011;22957;50.824;4.360;2023-07-16T08:03:31;1481.93;;;999.90;;
2390;SDS011;22957;50.824;4.360;2023-07-16T08:05:56;1491.67;;;999.90;;
2390;SDS011;22957;50.824;4.360;2023-07-16T08:08:22;1490.50;;;999.90;;
2390;SDS011;22957;50.824;4.360;2023-07-16T08:10:47;1495.00;;;999.90;;
2390;SDS011;22957;50.824;4.360;2023-07-16T08:13:13;1500.90;;;999.90;;
2390;SDS011;22957;50.824;4.360;2023-07-16T08:15:39;1510.60;;;999.90;;
2390;SDS011;22957;50.824;4.360;2023-07-16T08:18:04;1511.13;;;999.90;;
2390;SDS011;22957;50.824;4.360;2023-07-16T08:20:30;1508.43;;;999.90;;
2390;SDS011;22957;50.824;4.360;2023-07-16T08:22:55;1513.23;;;999.90;;
2390;SDS011;22957;50.824;4.360;2023-07-16T08:25:21;1516.43;;;999.90;;
2390;SDS011;22957;50.824;4.360;2023-07-16T08:27:47;1516.20;;;999.90;;
2390;SDS011;22957;50.824;4.360;2023-07-16T08:30:13;1520.57;;;999.90;;
2390;SDS011;22957;50.824;4.360;2023-07-16T08:32:39;1522.53;;;999.90;;
2390;SDS011;22957;50.824;4.360;2023-07-16T08:35:04;1515.77;;;999.90;;
2390;SDS011;22957;50.824;4.360;2023-07-16T08:37:30;1516.77;;;999.90;;
2390;SDS011;22957;50.824;4.360;2023-07-16T08:39:56;1519.97;;;999.90;;
2390;SDS011;22957;50.824;4.360;2023-07-16T08:42:21;1527.83;;;999.90;;
2390;SDS011;22957;50.824;4.360;2023-07-16T08:44:48;1518.70;;;999.90;;
2390;SDS011;22957;50.824;4.360;2023-07-16T08:47:15;1515.10;;;999.90;;
2390;SDS011;22957;50.824;4.360;2023-07-16T08:49:41;1522.67;;;999.90;;
2390;SDS011;22957;50.824;4.360;2023-07-16T08:52:15;1516.37;;;999.90;;
2390;SDS011;22957;50.824;4.360;2023-07-16T08:54:43;1509.53;;;999.90;;
2390;SDS011;22957;50.824;4.360;2023-07-16T08:57:09;1510.77;;;999.90;;
2390;SDS011;22957;50.824;4.360;2023-07-16T08:59:35;1495.20;;;999.90;;
2390;SDS011;22957;50.824;4.360;2023-07-16T09:02:01;1485.17;;;999.90;;
2390;SDS011;22957;50.824;4.360;2023-07-16T09:04:27;1479.40;;;999.90;;
2390;SDS011;22957;50.824;4.360;2023-07-16T09:06:54;1466.97;;;999.90;;
2390;SDS011;22957;50.824;4.360;2023-07-16T09:09:21;1468.93;;;999.90;;
2390;SDS011;22957;50.824;4.360;2023-07-16T09:11:48;1467.40;;;999.90;;
2390;SDS011;22957;50.824;4.360;2023-07-16T09:14:17;1466.77;;;999.90;;
2390;SDS011;22957;50.824;4.360;2023-07-16T09:16:47;1464.63;;;999.90;;
2390;SDS011;22957;50.824;4.360;2023-07-16T09:19:16;1460.93;;;999.90;;
2390;SDS011;22957;50.824;4.360;2023-07-16T09:21:45;1459.10;;;999.90;;
2390;SDS011;22957;50.824;4.360;2023-07-16T09:24:15;1463.40;;;999.90;;
2390;SDS011;22957;50.824;4.360;2023-07-16T09:26:51;1460.27;;;999.90;;
2390;SDS011;22957;50.824;4.360;2023-07-16T09:29:18;1448.73;;;999.90;;
2390;SDS011;22957;50.824;4.360;2023-07-16T09:31:59;1453.77;;;999.90;;
2390;SDS011;22957;50.824;4.360;2023-07-16T09:34:27;1455.67;;;999.90;;
2390;SDS011;22957;50.824;4.360;2023-07-16T09:36:53;1443.23;;;999.90;;
2390;SDS011;22957;50.824;4.360;2023-07-16T09:39:19;1445.00;;;999.90;;
2390;SDS011;22957;50.824;4.360;2023-07-16T09:41:48;1437.57;;;999.90;;
2390;SDS011;22957;50.824;4.360;2023-07-16T09:44:15;1429.90;;;999.90;;
2390;SDS011;22957;50.824;4.360;2023-07-16T09:46:41;1433.90;;;999.90;;
2390;SDS011;22957;50.824;4.360;2023-07-16T09:49:07;1454.83;;;999.90;;
2390;SDS011;22957;50.824;4.360;2023-07-16T09:51:35;1450.03;;;999.90;;
2390;SDS011;22957;50.824;4.360;2023-07-16T09:54:02;1461.23;;;999.90;;
2390;SDS011;22957;50.824;4.360;2023-07-16T09:56:49;1458.80;;;999.90;;
2390;SDS011;22957;50.824;4.360;2023-07-16T09:59:16;1460.13;;;999.90;;
2390;SDS011;22957;50.824;4.360;2023-07-16T10:01:44;1465.10;;;999.90;;
2390;SDS011;22957;50.824;4.360;2023-07-16T10:04:13;1461.90;;;999.90;;
2390;SDS011;22957;50.824;4.360;2023-07-16T10:12:14;1451.37;;;999.90;;
2390;SDS011;22957;50.824;4.360;2023-07-16T10:14:42;1434.90;;;999.90;;
2390;SDS011;22957;50.824;4.360;2023-07-16T10:17:16;1441.30;;;999.90;;
2390;SDS011;22957;50.824;4.360;2023-07-16T10:22:15;1438.97;;;999.90;;
2390;SDS011;22957;50.824;4.360;2023-07-16T10:24:42;1439.60;;;999.90;;
2390;SDS011;22957;50.824;4.360;2023-07-16T10:27:08;1441.60;;;999.90;;
2390;SDS011;22957;50.824;4.360;2023-07-16T10:29:34;1436.33;;;999.90;;
2390;SDS011;22957;50.824;4.360;2023-07-16T10:32:01;1426.00;;;999.90;;
2390;SDS011;22957;50.824;4.360;2023-07-16T10:34:27;1423.67;;;999.90;;
2390;SDS011;22957;50.824;4.360;2023-07-16T10:36:53;1420.00;;;999.90;;
2390;SDS011;22957;50.824;4.360;2023-07-16T10:39:19;1420.00;;;999.90;;
2390;SDS011;22957;50.824;4.360;2023-07-16T10:41:44;1415.93;;;999.90;;
2390;SDS011;22957;50.824;4.360;2023-07-16T10:44:14;1409.97;;;999.90;;
2390;SDS011;22957;50.824;4.360;2023-07-16T10:46:43;1409.17;;;999.90;;
2390;SDS011;22957;50.824;4.360;2023-07-16T10:49:09;1405.27;;;999.90;;
2390;SDS011;22957;50.824;4.360;2023-07-16T10:51:34;1414.50;;;999.90;;
2390;SDS011;22957;50.824;4.360;2023-07-16T10:54:00;1409.87;;;999.90;;
2390;SDS011;22957;50.824;4.360;2023-07-16T10:56:30;1421.70;;;999.90;;
2390;SDS011;22957;50.824;4.360;2023-07-16T10:59:00;1414.83;;;999.90;;
2390;SDS011;22957;50.824;4.360;2023-07-16T11:01:28;1425.43;;;999.90;;
2390;SDS011;22957;50.824;4.360;2023-07-16T11:03:59;1418.93;;;999.90;;
2390;SDS011;22957;50.824;4.360;2023-07-16T11:06:26;1417.70;;;999.90;;
2390;SDS011;22957;50.824;4.360;2023-07-16T11:08:51;1417.13;;;999.90;;
2390;SDS011;22957;50.824;4.360;2023-07-16T11:11:27;1430.03;;;999.90;;
2390;SDS011;22957;50.824;4.360;2023-07-16T11:13:53;1423.40;;;999.90;;
2390;SDS011;22957;50.824;4.360;2023-07-16T11:16:19;1418.97;;;999.90;;
2390;SDS011;22957;50.824;4.360;2023-07-16T11:18:44;1411.83;;;999.90;;
2390;SDS011;22957;50.824;4.360;2023-07-16T11:21:10;1398.43;;;999.90;;
2390;SDS011;22957;50.824;4.360;2023-07-16T11:23:36;1394.13;;;999.90;;
2390;SDS011;22957;50.824;4.360;2023-07-16T11:26:04;1387.90;;;999.90;;
2390;SDS011;22957;50.824;4.360;2023-07-16T11:28:37;1379.17;;;999.90;;
2390;SDS011;22957;50.824;4.360;2023-07-16T11:31:09;1381.70;;;999.90;;
2390;SDS011;22957;50.824;4.360;2023-07-16T11:33:36;1381.47;;;999.90;;
2390;SDS011;22957;50.824;4.360;2023-07-16T11:36:02;1389.03;;;999.90;;
2390;SDS011;22957;50.824;4.360;2023-07-16T11:38:27;1385.43;;;999.90;;
2390;SDS011;22957;50.824;4.360;2023-07-16T11:40:53;1387.33;;;999.90;;
2390;SDS011;22957;50.824;4.360;2023-07-16T11:43:18;1378.10;;;999.90;;
2390;SDS011;22957;50.824;4.360;2023-07-16T11:45:47;1389.93;;;999.90;;
2390;SDS011;22957;50.824;4.360;2023-07-16T11:48:13;1393.83;;;999.90;;
2390;SDS011;22957;50.824;4.360;2023-07-16T11:50:39;1399.70;;;999.90;;
2390;SDS011;22957;50.824;4.360;2023-07-16T11:53:04;1406.63;;;999.90;;
2390;SDS011;22957;50.824;4.360;2023-07-16T11:55:30;1424.87;;;999.90;;
2390;SDS011;22957;50.824;4.360;2023-07-16T11:57:55;1431.20;;;999.90;;
2390;SDS011;22957;50.824;4.360;2023-07-16T12:00:22;1454.83;;;999.90;;
2390;SDS011;22957;50.824;4.360;2023-07-16T12:02:48;1462.10;;;999.90;;
2390;SDS011;22957;50.824;4.360;2023-07-16T12:05:19;1463.10;;;999.90;;
2390;SDS011;22957;50.824;4.360;2023-07-16T12:07:46;1465.97;;;999.90;;
2390;SDS011;22957;50.824;4.360;2023-07-16T12:10:12;1472.97;;;999.90;;
2390;SDS011;22957;50.824;4.360;2023-07-16T12:12:37;1482.03;;;999.90;;
2390;SDS011;22957;50.824;4.360;2023-07-16T12:15:04;1477.13;;;999.90;;
2390;SDS011;22957;50.824;4.360;2023-07-16T12:17:30;1483.77;;;999.90;;
2390;SDS011;22957;50.824;4.360;2023-07-16T12:19:56;1488.37;;;999.90;;
2390;SDS011;22957;50.824;4.360;2023-07-16T12:22:21;1479.77;;;999.90;;
2390;SDS011;22957;50.824;4.360;2023-07-16T12:24:48;1492.43;;;999.90;;
2390;SDS011;22957;50.824;4.360;2023-07-16T12:27:14;1481.27;;;999.90;;
2390;SDS011;22957;50.824;4.360;2023-07-16T12:29:40;1482.50;;;999.90;;
2390;SDS011;22957;50.824;4.360;2023-07-16T12:32:06;1485.13;;;999.90;;
2390;SDS011;22957;50.824;4.360;2023-07-16T12:34:33;1483.37;;;999.90;;
2390;SDS011;22957;50.824;4.360;2023-07-16T12:36:58;1479.03;;;999.90;;
2390;SDS011;22957;50.824;4.360;2023-07-16T12:39:24;1476.00;;;999.90;;
2390;SDS011;22957;50.824;4.360;2023-07-16T12:41:49;1472.83;;;999.90;;
2390;SDS011;22957;50.824;4.360;2023-07-16T12:44:15;1475.63;;;999.90;;
2390;SDS011;22957;50.824;4.360;2023-07-16T12:46:41;1471.33;;;999.90;;
2390;SDS011;22957;50.824;4.360;2023-07-16T12:49:06;1475.90;;;999.90;;
2390;SDS011;22957;50.824;4.360;2023-07-16T12:51:32;1472.57;;;999.90;;
2390;SDS011;22957;50.824;4.360;2023-07-16T12:53:57;1475.40;;;999.90;;
2390;SDS011;22957;50.824;4.360;2023-07-16T12:56:23;1477.10;;;999.90;;
2390;SDS011;22957;50.824;4.360;2023-07-16T12:58:48;1468.43;;;999.90;;
2390;SDS011;22957;50.824;4.360;2023-07-16T13:01:14;1480.53;;;999.90;;
2390;SDS011;22957;50.824;4.360;2023-07-16T13:03:39;1479.80;;;999.90;;
2390;SDS011;22957;50.824;4.360;2023-07-16T13:06:05;1479.73;;;999.90;;
2390;SDS011;22957;50.824;4.360;2023-07-16T13:08:31;1481.43;;;999.90;;
2390;SDS011;22957;50.824;4.360;2023-07-16T13:10:56;1486.43;;;999.90;;
2390;SDS011;22957;50.824;4.360;2023-07-16T13:13:22;1484.23;;;999.90;;
2390;SDS011;22957;50.824;4.360;2023-07-16T13:15:48;1491.40;;;999.90;;
2390;SDS011;22957;50.824;4.360;2023-07-16T13:18:13;1489.07;;;999.90;;
2390;SDS011;22957;50.824;4.360;2023-07-16T13:20:39;1486.20;;;999.90;;
2390;SDS011;22957;50.824;4.360;2023-07-16T13:23:05;1480.93;;;999.90;;
2390;SDS011;22957;50.824;4.360;2023-07-16T13:25:30;1481.83;;;999.90;;
2390;SDS011;22957;50.824;4.360;2023-07-16T13:27:56;1470.83;;;999.90;;
2390;SDS011;22957;50.824;4.360;2023-07-16T13:30:22;1469.80;;;999.90;;
2390;SDS011;22957;50.824;4.360;2023-07-16T13:32:48;1459.83;;;999.90;;
2390;SDS011;22957;50.824;4.360;2023-07-16T13:35:16;1467.93;;;999.90;;
2390;SDS011;22957;50.824;4.360;2023-07-16T13:37:42;1467.27;;;999.90;;
2390;SDS011;22957;50.824;4.360;2023-07-16T13:40:08;1451.43;;;999.90;;
2390;SDS011;22957;50.824;4.360;2023-07-16T13:42:34;1457.90;;;999.90;;
2390;SDS011;22957;50.824;4.360;2023-07-16T13:45:00;1451.80;;;999.90;;
2390;SDS011;22957;50.824;4.360;2023-07-16T13:47:25;1451.60;;;999.90;;
2390;SDS011;22957;50.824;4.360;2023-07-16T13:49:51;1449.83;;;999.90;;
2390;SDS011;22957;50.824;4.360;2023-07-16T13:52:16;1455.07;;;999.90;;
2390;SDS011;22957;50.824;4.360;2023-07-16T13:54:42;1460.33;;;999.90;;
2390;SDS011;22957;50.824;4.360;2023-07-16T13:57:08;1460.63;;;999.90;;
2390;SDS011;22957;50.824;4.360;2023-07-16T13:59:33;1462.63;;;999.90;;
2390;SDS011;22957;50.824;4.360;2023-07-16T14:02:00;1460.60;;;999.90;;
2390;SDS011;22957;50.824;4.360;2023-07-16T14:04:27;1468.83;;;999.90;;
2390;SDS011;22957;50.824;4.360;2023-07-16T14:06:53;1469.80;;;999.90;;
2390;SDS011;22957;50.824;4.360;2023-07-16T14:09:19;1464.83;;;999.90;;